createdAt,value
2022-11-27T00:02:14.614Z,0.80
2022-11-27T00:04:41.293Z,0.80
2022-11-27T00:07:07.952Z,0.70
2022-11-27T00:09:34.564Z,0.70
2022-11-27T00:12:01.205Z,0.60
2022-11-27T00:14:28.026Z,0.60
2022-11-27T00:16:54.668Z,0.60
2022-11-27T00:19:21.223Z,0.60
2022-11-27T00:21:47.805Z,0.60
2022-11-27T00:24:14.528Z,0.60
2022-11-27T00:26:41.093Z,0.50
2022-11-27T00:29:07.924Z,0.50
2022-11-27T00:31:35.413Z,0.50
2022-11-27T00:34:03.065Z,0.60
2022-11-27T00:36:30.475Z,0.50
2022-11-27T00:38:57.044Z,0.50
2022-11-27T00:41:24.868Z,0.70
2022-11-27T00:43:52.189Z,0.50
2022-11-27T00:46:24.042Z,0.40
2022-11-27T00:48:54.819Z,0.40
2022-11-27T00:51:22.305Z,0.40
2022-11-27T00:53:49.031Z,0.40
2022-11-27T00:56:16.872Z,0.40
2022-11-27T00:58:43.571Z,0.30
2022-11-27T01:01:15.315Z,0.30
2022-11-27T01:03:41.919Z,0.60
2022-11-27T01:06:08.503Z,0.30
2022-11-27T01:08:35.062Z,0.30
2022-11-27T01:11:01.954Z,0.30
2022-11-27T01:13:33.469Z,0.30
2022-11-27T01:16:03.141Z,0.30
2022-11-27T01:18:30.071Z,0.30
2022-11-27T01:20:56.655Z,0.30
2022-11-27T01:23:23.551Z,0.30
2022-11-27T01:25:50.573Z,0.30
2022-11-27T01:28:17.199Z,0.30
2022-11-27T01:30:43.801Z,0.20
2022-11-27T01:33:10.381Z,0.20
2022-11-27T01:35:37.070Z,0.20
2022-11-27T01:38:03.914Z,0.20
2022-11-27T01:40:30.526Z,0.10
2022-11-27T01:42:57.167Z,0.20
2022-11-27T01:45:23.939Z,0.10
2022-11-27T01:47:56.009Z,0.70
2022-11-27T01:50:24.831Z,0.10
2022-11-27T01:52:53.862Z,0.10
2022-11-27T01:55:27.043Z,0.10
2022-11-27T01:57:56.714Z,0.10
2022-11-27T02:00:23.343Z,0.10
2022-11-27T02:02:50.067Z,0.10
2022-11-27T02:05:18.998Z,0.10
2022-11-27T02:07:46.548Z,0.10
2022-11-27T02:10:14.053Z,0.10
2022-11-27T02:13:01.444Z,0.10
2022-11-27T02:15:46.511Z,0.10
2022-11-27T02:18:17.701Z,0.10
2022-11-27T02:20:44.294Z,0.10
2022-11-27T02:23:29.222Z,0.10
2022-11-27T02:26:01.884Z,0.00
2022-11-27T02:28:28.467Z,0.00
2022-11-27T02:30:57.979Z,0.00
2022-11-27T02:33:25.149Z,0.00
2022-11-27T02:35:57.151Z,0.00
2022-11-27T02:38:28.092Z,0.00
2022-11-27T02:41:09.785Z,-0.10
2022-11-27T02:43:38.617Z,0.00
2022-11-27T02:46:06.314Z,0.00
2022-11-27T02:48:37.420Z,0.00
2022-11-27T02:51:05.669Z,0.00
2022-11-27T02:53:37.888Z,0.00
2022-11-27T02:56:10.190Z,0.00
2022-11-27T02:58:37.567Z,0.00
2022-11-27T03:01:05.730Z,0.00
2022-11-27T03:03:44.218Z,0.00
2022-11-27T03:06:11.683Z,0.00
2022-11-27T03:08:54.941Z,0.00
2022-11-27T03:11:21.599Z,0.10
2022-11-27T03:13:53.952Z,0.10
2022-11-27T03:16:20.711Z,0.10
2022-11-27T03:18:47.369Z,0.20
2022-11-27T03:21:17.063Z,0.10
2022-11-27T03:23:43.707Z,0.10
2022-11-27T03:26:10.305Z,0.00
2022-11-27T03:28:37.049Z,0.00
2022-11-27T03:31:03.741Z,-0.10
2022-11-27T03:33:30.452Z,-0.10
2022-11-27T03:35:57.033Z,-0.20
2022-11-27T03:38:23.637Z,-0.20
2022-11-27T03:41:03.539Z,-0.20
2022-11-27T03:43:34.224Z,-0.20
2022-11-27T03:46:03.898Z,-0.20
2022-11-27T03:48:38.187Z,-0.20
2022-11-27T03:51:08.865Z,-0.30
2022-11-27T03:53:52.121Z,-0.30
2022-11-27T03:56:21.715Z,-0.30
2022-11-27T03:58:52.085Z,-0.30
2022-11-27T04:01:20.582Z,-0.40
2022-11-27T04:03:47.236Z,-0.40
2022-11-27T04:06:13.889Z,-0.40
2022-11-27T04:08:40.684Z,-0.40
2022-11-27T04:11:08.458Z,-0.40
2022-11-27T04:13:35.103Z,-2.00
2022-11-27T04:16:02.163Z,-0.40
2022-11-27T04:18:29.123Z,-0.40
2022-11-27T04:20:55.801Z,-0.40
2022-11-27T04:23:22.382Z,-0.40
2022-11-27T04:25:49.516Z,-0.50
2022-11-27T04:28:17.622Z,-0.50
2022-11-27T04:30:44.843Z,-0.50
2022-11-27T04:33:11.420Z,-0.50
2022-11-27T04:35:38.029Z,-0.50
2022-11-27T04:38:04.666Z,-0.50
2022-11-27T04:40:31.248Z,-0.50
2022-11-27T04:42:57.850Z,-0.50
2022-11-27T04:45:24.407Z,-0.50
2022-11-27T04:47:50.951Z,-0.50
2022-11-27T04:50:17.693Z,-0.50
2022-11-27T04:52:44.318Z,-0.50
2022-11-27T04:57:37.940Z,-0.50
2022-11-27T05:02:31.624Z,-0.50
2022-11-27T05:07:25.806Z,-0.50
2022-11-27T05:09:52.386Z,-0.50
2022-11-27T05:12:18.980Z,-0.40
2022-11-27T05:17:12.574Z,-0.50
2022-11-27T05:19:39.293Z,-0.50
2022-11-27T05:22:05.964Z,-0.50
2022-11-27T05:24:33.025Z,-0.50
2022-11-27T05:26:59.619Z,-0.50
2022-11-27T05:29:26.564Z,-0.60
2022-11-27T05:31:53.638Z,-0.60
2022-11-27T05:34:20.432Z,-0.60
2022-11-27T05:39:14.121Z,-0.60
2022-11-27T05:41:41.367Z,-0.60
2022-11-27T05:44:09.372Z,-0.60
2022-11-27T05:46:36.066Z,-0.60
2022-11-27T05:49:02.735Z,-0.70
2022-11-27T05:51:29.327Z,-0.70
2022-11-27T05:53:55.900Z,-0.70
2022-11-27T05:56:22.542Z,-0.70
2022-11-27T05:58:49.441Z,-0.70
2022-11-27T06:01:17.181Z,-0.70
2022-11-27T06:03:44.272Z,-0.70
2022-11-27T06:06:18.379Z,-0.70
2022-11-27T06:08:45.660Z,-0.80
2022-11-27T06:11:14.066Z,-0.70
2022-11-27T06:13:40.889Z,-0.80
2022-11-27T06:16:07.549Z,-0.80
2022-11-27T06:18:34.325Z,-0.80
2022-11-27T06:23:27.980Z,-0.80
2022-11-27T06:25:54.532Z,-1.20
2022-11-27T06:28:21.225Z,-0.80
2022-11-27T06:30:47.839Z,-0.80
2022-11-27T06:33:14.402Z,-0.80
2022-11-27T06:35:41.228Z,-0.80
2022-11-27T06:38:07.798Z,-0.80
2022-11-27T06:40:34.378Z,-0.80
2022-11-27T06:43:00.951Z,-0.80
2022-11-27T06:45:27.551Z,-0.90
2022-11-27T06:47:54.234Z,-0.90
2022-11-27T06:50:20.854Z,-0.90
2022-11-27T06:52:47.561Z,-0.90
2022-11-27T06:55:14.198Z,-0.90
2022-11-27T06:57:40.847Z,-0.80
2022-11-27T07:00:07.840Z,-0.80
2022-11-27T07:02:34.492Z,-0.80
2022-11-27T07:05:01.097Z,-0.80
2022-11-27T07:07:27.848Z,-0.80
2022-11-27T07:09:54.453Z,-0.80
2022-11-27T07:12:21.154Z,-0.80
2022-11-27T07:14:47.803Z,-0.70
2022-11-27T07:17:14.350Z,-0.70
2022-11-27T07:19:41.067Z,-0.70
2022-11-27T07:22:07.635Z,-0.60
2022-11-27T07:24:34.267Z,-0.60
2022-11-27T07:27:00.832Z,-0.60
2022-11-27T07:29:27.493Z,-0.50
2022-11-27T07:31:54.155Z,-0.50
2022-11-27T07:34:21.862Z,-0.50
2022-11-27T07:36:48.641Z,-0.40
2022-11-27T07:39:22.168Z,-0.30
2022-11-27T07:41:57.369Z,-0.30
2022-11-27T07:44:26.636Z,-0.20
2022-11-27T07:46:53.203Z,-0.10
2022-11-27T07:49:19.866Z,0.00
2022-11-27T07:51:46.436Z,0.00
2022-11-27T07:54:13.005Z,0.10
2022-11-27T07:56:39.582Z,0.10
2022-11-27T07:59:06.247Z,0.20
2022-11-27T08:01:32.908Z,0.30
2022-11-27T08:03:59.643Z,0.40
2022-11-27T08:06:27.535Z,0.50
2022-11-27T08:08:56.629Z,0.70
2022-11-27T08:11:27.683Z,0.80
2022-11-27T08:13:58.806Z,0.90
2022-11-27T08:16:25.992Z,1.00
2022-11-27T08:18:52.818Z,1.10
2022-11-27T08:21:19.905Z,1.30
2022-11-27T08:23:46.573Z,1.30
2022-11-27T08:26:13.628Z,1.40
2022-11-27T08:28:40.767Z,1.50
2022-11-27T08:31:08.324Z,1.50
2022-11-27T08:33:35.197Z,1.60
2022-11-27T08:36:02.078Z,1.70
2022-11-27T08:38:28.745Z,1.80
2022-11-27T08:40:59.685Z,1.90
2022-11-27T08:43:26.484Z,1.90
2022-11-27T08:45:53.450Z,2.00
2022-11-27T08:48:20.465Z,2.10
2022-11-27T08:50:47.808Z,2.20
2022-11-27T08:53:14.758Z,2.30
2022-11-27T08:55:41.355Z,2.40
2022-11-27T08:58:08.174Z,2.60
2022-11-27T09:00:35.528Z,2.70
2022-11-27T09:03:02.139Z,2.80
2022-11-27T09:05:29.400Z,2.90
2022-11-27T09:07:56.104Z,3.00
2022-11-27T09:10:22.836Z,3.20
2022-11-27T09:12:50.116Z,3.10
2022-11-27T09:15:17.403Z,3.10
2022-11-27T09:17:44.393Z,3.10
2022-11-27T09:20:11.209Z,3.10
2022-11-27T09:22:37.773Z,3.00
2022-11-27T09:25:04.481Z,3.10
2022-11-27T09:27:31.106Z,3.10
2022-11-27T09:29:57.832Z,3.20
2022-11-27T09:32:24.494Z,3.20
2022-11-27T09:34:54.201Z,3.30
2022-11-27T09:37:20.811Z,3.30
2022-11-27T09:39:47.429Z,3.30
2022-11-27T09:42:24.963Z,3.30
2022-11-27T09:44:57.986Z,3.30
2022-11-27T09:47:41.287Z,3.30
2022-11-27T09:50:13.223Z,3.50
2022-11-27T09:52:42.494Z,3.50
2022-11-27T09:55:15.328Z,3.60
2022-11-27T09:57:42.714Z,3.60
2022-11-27T10:00:13.854Z,4.10
2022-11-27T10:02:40.993Z,3.70
2022-11-27T10:05:14.450Z,3.80
2022-11-27T10:07:47.884Z,3.90
2022-11-27T10:10:14.519Z,3.90
2022-11-27T10:12:47.422Z,4.00
2022-11-27T10:15:32.719Z,4.00
2022-11-27T10:18:22.305Z,4.00
2022-11-27T10:20:50.744Z,4.10
2022-11-27T10:23:25.959Z,4.20
2022-11-27T10:25:56.568Z,4.30
2022-11-27T10:28:23.166Z,4.30
2022-11-27T10:30:52.885Z,4.20
2022-11-27T10:33:25.804Z,5.60
2022-11-27T10:35:52.599Z,4.40
2022-11-27T10:38:23.660Z,4.50
2022-11-27T10:41:09.818Z,4.60
2022-11-27T10:43:38.750Z,4.50
2022-11-27T10:46:12.707Z,4.60
2022-11-27T10:48:39.540Z,4.80
2022-11-27T10:51:14.170Z,7.10
2022-11-27T10:53:42.850Z,4.90
2022-11-27T10:56:13.881Z,5.00
2022-11-27T10:58:58.047Z,4.90
2022-11-27T11:01:25.764Z,5.00
2022-11-27T11:04:24.381Z,5.00
2022-11-27T11:06:51.978Z,5.10
2022-11-27T11:09:24.237Z,5.30
2022-11-27T11:11:51.412Z,5.10
2022-11-27T11:14:18.009Z,5.10
2022-11-27T11:16:44.905Z,5.30
2022-11-27T11:19:21.966Z,6.80
2022-11-27T11:21:48.619Z,8.00
2022-11-27T11:24:23.774Z,8.60
2022-11-27T11:26:52.169Z,5.50
2022-11-27T11:29:27.056Z,5.80
2022-11-27T11:31:55.198Z,6.60
2022-11-27T11:34:29.108Z,11.50
2022-11-27T11:36:55.756Z,10.70
2022-11-27T11:39:24.099Z,12.80
2022-11-27T11:41:50.737Z,13.60
2022-11-27T11:44:22.597Z,13.90
2022-11-27T11:46:53.366Z,15.40
2022-11-27T11:49:24.166Z,16.30
2022-11-27T11:52:02.728Z,17.00
2022-11-27T11:54:41.924Z,15.30
2022-11-27T11:57:35.172Z,15.70
2022-11-27T12:00:01.729Z,15.80
2022-11-27T12:02:51.671Z,15.70
2022-11-27T12:05:27.187Z,15.10
2022-11-27T12:07:53.924Z,15.00
2022-11-27T12:10:28.050Z,15.40
2022-11-27T12:13:03.889Z,15.20
2022-11-27T12:15:37.270Z,14.70
2022-11-27T12:18:13.952Z,14.30
2022-11-27T12:20:55.944Z,15.00
2022-11-27T12:23:37.702Z,15.20
2022-11-27T12:26:08.427Z,15.20
2022-11-27T12:28:41.623Z,14.10
2022-11-27T12:31:20.696Z,14.10
2022-11-27T12:33:56.565Z,13.10
2022-11-27T12:36:42.099Z,13.00
2022-11-27T12:39:25.826Z,12.20
2022-11-27T12:41:55.208Z,11.80
2022-11-27T12:44:30.931Z,11.40
2022-11-27T12:47:14.988Z,10.50
2022-11-27T12:50:11.059Z,10.40
2022-11-27T12:52:45.896Z,10.30
2022-11-27T12:55:18.784Z,10.30
2022-11-27T12:57:54.480Z,10.50
2022-11-27T13:00:23.143Z,10.80
2022-11-27T13:02:52.920Z,11.10
2022-11-27T13:05:22.783Z,11.20
2022-11-27T13:07:52.942Z,10.50
2022-11-27T13:10:25.902Z,11.30
2022-11-27T13:13:11.080Z,10.40
2022-11-27T13:15:46.204Z,10.50
2022-11-27T13:18:15.806Z,10.40
2022-11-27T13:20:44.902Z,10.30
2022-11-27T13:23:12.937Z,12.40
2022-11-27T13:25:43.254Z,10.40
2022-11-27T13:28:17.913Z,9.50
2022-11-27T13:30:44.674Z,10.20
2022-11-27T13:33:18.211Z,9.20
2022-11-27T13:35:46.723Z,9.90
2022-11-27T13:38:19.031Z,9.10
2022-11-27T13:40:49.808Z,8.90
2022-11-27T13:43:19.466Z,8.70
2022-11-27T13:45:46.296Z,8.90
2022-11-27T13:48:25.103Z,9.10
2022-11-27T13:50:51.807Z,9.20
2022-11-27T13:53:18.432Z,9.10
2022-11-27T13:55:55.187Z,9.30
2022-11-27T13:58:32.352Z,8.80
2022-11-27T14:00:59.410Z,8.60
2022-11-27T14:03:30.124Z,8.10
2022-11-27T14:05:57.437Z,7.80
2022-11-27T14:08:24.043Z,7.50
2022-11-27T14:10:56.111Z,7.20
2022-11-27T14:13:27.349Z,6.90
2022-11-27T14:16:01.718Z,6.70
2022-11-27T14:18:30.070Z,6.20
2022-11-27T14:20:59.160Z,7.40
2022-11-27T14:23:28.824Z,5.90
2022-11-27T14:26:15.373Z,5.70
2022-11-27T14:28:43.533Z,5.60
2022-11-27T14:31:29.780Z,5.50
2022-11-27T14:34:14.875Z,5.40
2022-11-27T14:36:42.873Z,5.30
2022-11-27T14:39:20.393Z,5.30
2022-11-27T14:41:55.851Z,5.30
2022-11-27T14:44:22.458Z,5.10
2022-11-27T14:46:49.174Z,5.10
2022-11-27T14:49:19.573Z,5.20
2022-11-27T14:51:46.719Z,4.90
2022-11-27T14:54:23.274Z,4.80
2022-11-27T14:56:49.950Z,4.80
2022-11-27T14:59:18.080Z,4.60
2022-11-27T15:01:46.495Z,4.50
2022-11-27T15:04:26.830Z,4.40
2022-11-27T15:06:54.797Z,4.30
2022-11-27T15:09:32.197Z,4.30
2022-11-27T15:11:59.240Z,4.30
2022-11-27T15:14:28.103Z,4.30
2022-11-27T15:16:55.539Z,5.10
2022-11-27T15:19:34.344Z,4.20
2022-11-27T15:22:01.347Z,4.20
2022-11-27T15:24:30.838Z,4.10
2022-11-27T15:27:07.317Z,4.10
2022-11-27T15:29:38.996Z,4.10
2022-11-27T15:32:24.564Z,4.00
2022-11-27T15:34:52.052Z,3.90
2022-11-27T15:37:23.547Z,3.70
2022-11-27T15:39:51.664Z,3.70
2022-11-27T15:42:18.977Z,3.70
2022-11-27T15:44:46.239Z,3.70
2022-11-27T15:47:40.191Z,3.80
2022-11-27T15:50:07.262Z,3.70
2022-11-27T15:52:33.855Z,3.70
2022-11-27T15:55:00.491Z,3.70
2022-11-27T15:57:27.099Z,3.60
2022-11-27T15:59:53.728Z,3.50
2022-11-27T16:02:20.361Z,3.50
2022-11-27T16:04:46.998Z,3.50
2022-11-27T16:07:14.398Z,3.50
2022-11-27T16:09:41.015Z,3.50
2022-11-27T16:12:07.603Z,3.40
2022-11-27T16:14:34.249Z,3.40
2022-11-27T16:17:01.387Z,3.30
2022-11-27T16:19:28.148Z,3.30
2022-11-27T16:21:54.824Z,3.30
2022-11-27T16:24:21.505Z,3.20
2022-11-27T16:26:48.229Z,3.00
2022-11-27T16:29:14.975Z,2.70
2022-11-27T16:31:41.782Z,2.60
2022-11-27T16:34:08.484Z,2.70
2022-11-27T16:36:35.054Z,2.60
2022-11-27T16:39:01.675Z,2.50
2022-11-27T16:41:28.302Z,2.50
2022-11-27T16:43:56.790Z,2.50
2022-11-27T16:46:26.309Z,2.50
2022-11-27T16:48:54.055Z,2.60
2022-11-27T16:51:25.170Z,2.70
2022-11-27T16:53:53.288Z,2.80
2022-11-27T16:56:21.790Z,2.90
2022-11-27T16:58:48.439Z,2.90
2022-11-27T17:01:29.849Z,3.60
2022-11-27T17:03:56.783Z,2.60
2022-11-27T17:06:28.472Z,2.40
2022-11-27T17:08:55.533Z,2.60
2022-11-27T17:11:24.766Z,2.60
2022-11-27T17:13:52.166Z,2.60
2022-11-27T17:16:19.201Z,2.60
2022-11-27T17:18:45.896Z,2.60
2022-11-27T17:21:15.304Z,2.70
2022-11-27T17:23:43.153Z,2.70
2022-11-27T17:26:10.965Z,2.60
2022-11-27T17:28:37.899Z,2.60
2022-11-27T17:31:20.719Z,2.40
2022-11-27T17:33:47.749Z,2.40
2022-11-27T17:36:14.926Z,3.40
2022-11-27T17:38:41.750Z,2.20
2022-11-27T17:41:09.866Z,2.20
2022-11-27T17:43:37.117Z,2.30
2022-11-27T17:46:07.831Z,2.40
2022-11-27T17:48:34.496Z,2.50
2022-11-27T17:51:01.532Z,2.60
2022-11-27T17:53:28.236Z,2.50
2022-11-27T17:55:57.016Z,2.30
2022-11-27T17:58:24.242Z,2.30
2022-11-27T18:00:50.869Z,2.30
2022-11-27T18:03:17.477Z,2.40
2022-11-27T18:05:44.124Z,2.10
2022-11-27T18:08:10.721Z,2.10
2022-11-27T18:10:37.471Z,2.20
2022-11-27T18:13:04.127Z,2.20
2022-11-27T18:15:30.690Z,2.40
2022-11-27T18:17:58.390Z,2.40
2022-11-27T18:20:25.007Z,2.40
2022-11-27T18:22:51.587Z,2.50
2022-11-27T18:25:18.156Z,2.30
2022-11-27T18:27:44.770Z,2.10
2022-11-27T18:30:11.745Z,2.00
2022-11-27T18:32:38.500Z,2.20
2022-11-27T18:35:05.815Z,2.20
2022-11-27T18:37:34.132Z,2.20
2022-11-27T18:40:00.811Z,2.20
2022-11-27T18:42:27.414Z,1.90
2022-11-27T18:44:53.999Z,1.80
2022-11-27T18:47:20.756Z,2.00
2022-11-27T18:49:47.626Z,1.90
2022-11-27T18:52:14.302Z,2.00
2022-11-27T18:54:41.064Z,2.00
2022-11-27T18:57:07.770Z,2.00
2022-11-27T18:59:34.465Z,1.90
2022-11-27T19:02:01.769Z,2.00
2022-11-27T19:04:28.480Z,2.20
2022-11-27T19:06:55.079Z,2.20
2022-11-27T19:09:21.740Z,2.20
2022-11-27T19:11:48.385Z,2.20
2022-11-27T19:14:15.015Z,2.30
2022-11-27T19:16:46.350Z,2.30
2022-11-27T19:19:52.232Z,2.20
2022-11-27T19:22:01.681Z,2.20
2022-11-27T19:24:28.384Z,2.20
2022-11-27T19:26:55.023Z,2.40
2022-11-27T19:29:21.646Z,2.40
2022-11-27T19:31:48.326Z,2.50
2022-11-27T19:34:15.060Z,2.40
2022-11-27T19:36:41.634Z,2.20
2022-11-27T19:39:11.733Z,2.30
2022-11-27T19:41:38.328Z,2.50
2022-11-27T19:46:33.780Z,2.50
2022-11-27T19:49:01.971Z,2.60
2022-11-27T19:51:31.480Z,2.70
2022-11-27T19:53:59.494Z,2.80
2022-11-27T19:56:27.831Z,2.90
2022-11-27T19:58:54.521Z,2.80
2022-11-27T20:01:21.344Z,2.80
2022-11-27T20:03:48.049Z,2.90
2022-11-27T20:06:19.369Z,2.90
2022-11-27T20:08:46.706Z,2.70
2022-11-27T20:11:14.450Z,2.50
2022-11-27T20:13:41.422Z,2.60
2022-11-27T20:16:08.643Z,2.50
2022-11-27T20:18:35.790Z,2.40
2022-11-27T20:21:06.341Z,2.30
2022-11-27T20:23:33.086Z,2.50
2022-11-27T20:25:59.726Z,2.40
2022-11-27T20:28:26.392Z,2.50
2022-11-27T20:30:57.203Z,2.60
2022-11-27T20:33:24.029Z,2.70
2022-11-27T20:35:50.611Z,2.70
2022-11-27T20:38:17.179Z,2.70
2022-11-27T20:40:43.880Z,2.80
2022-11-27T20:43:10.462Z,2.80
2022-11-27T20:45:40.465Z,2.80
2022-11-27T20:48:08.180Z,2.70
2022-11-27T20:50:35.985Z,2.70
2022-11-27T20:53:02.560Z,2.60
2022-11-27T20:55:29.984Z,2.70
2022-11-27T20:57:56.783Z,2.50
2022-11-27T21:00:23.476Z,2.60
2022-11-27T21:02:50.127Z,2.80
2022-11-27T21:05:16.759Z,2.80
2022-11-27T21:07:43.385Z,3.70
2022-11-27T21:10:11.971Z,2.70
2022-11-27T21:12:38.763Z,2.80
2022-11-27T21:15:05.868Z,2.90
2022-11-27T21:17:32.483Z,3.00
2022-11-27T21:20:01.529Z,3.00
2022-11-27T21:22:28.461Z,3.00
2022-11-27T21:24:55.042Z,3.00
2022-11-27T21:27:21.675Z,2.90
2022-11-27T21:29:48.848Z,3.00
2022-11-27T21:32:17.916Z,2.90
2022-11-27T21:34:44.884Z,3.00
2022-11-27T21:37:11.659Z,3.00
2022-11-27T21:39:38.394Z,2.90
2022-11-27T21:42:05.003Z,2.90
2022-11-27T21:44:31.636Z,2.90
2022-11-27T21:47:00.035Z,2.90
2022-11-27T21:49:26.699Z,2.80
2022-11-27T21:51:53.691Z,3.00
2022-11-27T21:54:20.796Z,2.90
2022-11-27T21:56:50.434Z,3.00
2022-11-27T21:59:17.071Z,3.00
2022-11-27T22:01:44.318Z,3.00
2022-11-27T22:04:11.258Z,3.00
2022-11-27T22:06:39.185Z,3.00
2022-11-27T22:09:09.247Z,3.00
2022-11-27T22:11:38.641Z,3.00
2022-11-27T22:14:08.039Z,3.00
2022-11-27T22:16:39.860Z,3.10
2022-11-27T22:19:10.901Z,4.80
2022-11-27T22:21:37.574Z,3.10
2022-11-27T22:24:04.292Z,3.10
2022-11-27T22:26:30.922Z,3.10
2022-11-27T22:28:58.507Z,3.00
2022-11-27T22:31:26.642Z,2.90
2022-11-27T22:33:53.337Z,4.30
2022-11-27T22:36:19.988Z,2.90
2022-11-27T22:38:47.517Z,2.90
2022-11-27T22:41:14.873Z,2.90
2022-11-27T22:43:41.825Z,2.80
2022-11-27T22:46:17.645Z,2.80
2022-11-27T22:48:44.358Z,2.90
2022-11-27T22:51:11.420Z,3.00
2022-11-27T22:53:38.104Z,3.00
2022-11-27T22:56:08.767Z,3.00
2022-11-27T22:58:41.020Z,3.00
2022-11-27T23:01:09.492Z,3.10
2022-11-27T23:03:36.188Z,3.00
2022-11-27T23:06:04.057Z,2.90
2022-11-27T23:08:30.720Z,3.00
2022-11-27T23:10:57.395Z,3.10
2022-11-27T23:13:23.996Z,3.10
2022-11-27T23:15:50.607Z,3.10
2022-11-27T23:18:17.170Z,3.10
2022-11-27T23:20:44.140Z,2.90
2022-11-27T23:23:11.072Z,2.80
2022-11-27T23:25:38.175Z,2.70
2022-11-27T23:28:04.887Z,2.80
2022-11-27T23:30:32.003Z,2.70
2022-11-27T23:32:58.780Z,2.70
2022-11-27T23:35:25.511Z,2.70
2022-11-27T23:37:52.126Z,2.70
2022-11-27T23:40:18.871Z,2.80
2022-11-27T23:42:45.481Z,2.80
2022-11-27T23:45:12.188Z,2.90
2022-11-27T23:47:39.220Z,3.00
2022-11-27T23:50:06.596Z,3.00
2022-11-27T23:52:33.273Z,3.00
2022-11-27T23:54:59.870Z,3.00
2022-11-27T23:57:26.555Z,2.90
2022-11-27T23:59:53.139Z,4.80
